Time;durP1;ratioP1;P1;durP2;ratioP2;P2;SDS_P1;SDS_P2;PMS_P1;PMS_P2;Temp;Humidity;BMP_temperature;BMP_pressure;BME280_temperature;BME280_humidity;BME280_pressure;Samples;Min_cycle;Max_cycle;Signal;HPM_P1;HPM_P2
2023/03/10 00:01:46;;;;;;;13.87;2.10;;;7.50;99.90;;;;;;7831482;28;20178;-91
2023/03/10 00:05:31;;;;;;;10.10;1.93;;;7.40;99.90;;;;;;7835760;28;20293;-92
2023/03/10 00:09:17;;;;;;;10.47;2.37;;;7.30;99.90;;;;;;7836118;28;20232;-92
2023/03/10 00:13:03;;;;;;;13.17;2.13;;;7.20;99.90;;;;;;7835853;28;20208;-92
2023/03/10 00:16:48;;;;;;;7.87;2.30;;;7.10;99.90;;;;;;7836382;28;20248;-91
2023/03/10 00:20:34;;;;;;;10.40;2.07;;;7.10;99.90;;;;;;7836046;28;20582;-92
2023/03/10 00:24:20;;;;;;;13.87;1.93;;;7.00;99.90;;;;;;7837442;28;20263;-92
2023/03/10 00:28:05;;;;;;;9.83;1.93;;;7.00;99.90;;;;;;7837520;28;20178;-91
2023/03/10 00:31:51;;;;;;;9.60;2.17;;;7.00;99.90;;;;;;7837349;28;20216;-91
2023/03/10 00:35:36;;;;;;;9.83;2.07;;;7.00;99.90;;;;;;7837263;28;20194;-92
2023/03/10 00:39:22;;;;;;;10.10;2.00;;;7.00;99.90;;;;;;7838258;28;20189;-91
2023/03/10 00:43:08;;;;;;;9.53;1.90;;;6.90;99.90;;;;;;7839214;28;20216;-92
2023/03/10 00:46:54;;;;;;;11.70;2.87;;;6.90;99.90;;;;;;7842436;28;20261;-91
2023/03/10 00:50:39;;;;;;;7.90;2.30;;;7.00;99.90;;;;;;7842875;28;20205;-91
2023/03/10 00:54:25;;;;;;;7.87;2.80;;;7.00;99.90;;;;;;7842733;28;20209;-91
2023/03/10 00:58:11;;;;;;;8.50;2.53;;;7.10;99.90;;;;;;7842879;28;20214;-92
2023/03/10 01:01:56;;;;;;;11.37;3.00;;;7.10;99.90;;;;;;7843175;28;20178;-92
2023/03/10 01:05:43;;;;;;;16.17;2.93;;;7.20;99.90;;;;;;7880411;28;20198;-92
2023/03/10 01:09:29;;;;;;;8.07;2.73;;;7.20;99.90;;;;;;7848277;28;20202;-91
2023/03/10 01:13:16;;;;;;;9.70;2.77;;;7.20;99.90;;;;;;7842106;28;20218;-91
2023/03/10 01:17:04;;;;;;;8.67;2.90;;;7.20;99.90;;;;;;7842328;28;20201;-91
2023/03/10 01:20:50;;;;;;;13.90;3.43;;;7.10;99.90;;;;;;7841778;28;20258;-92
2023/03/10 01:24:35;;;;;;;8.20;3.30;;;7.10;99.90;;;;;;7841805;28;20257;-91
2023/03/10 01:28:21;;;;;;;10.63;3.70;;;7.10;99.90;;;;;;7841846;28;20188;-91
2023/03/10 01:32:07;;;;;;;11.37;4.80;;;7.20;99.90;;;;;;7842458;28;20198;-91
2023/03/10 01:35:52;;;;;;;12.17;5.07;;;7.20;99.90;;;;;;7843606;28;20201;-91
2023/03/10 01:39:38;;;;;;;9.50;5.13;;;7.10;99.90;;;;;;7845742;28;20182;-91
2023/03/10 01:43:32;;;;;;;11.70;5.43;;;7.20;99.90;;;;;;7846332;28;20212;-91
2023/03/10 01:47:17;;;;;;;9.00;6.03;;;7.20;99.90;;;;;;7841223;28;20185;-91
2023/03/10 01:51:03;;;;;;;12.70;6.70;;;7.20;99.90;;;;;;7841067;28;20182;-91
2023/03/10 01:54:55;;;;;;;20.87;9.97;;;7.10;99.90;;;;;;7840874;28;20209;-91
2023/03/10 01:58:44;;;;;;;15.37;9.90;;;7.10;99.90;;;;;;7840808;28;20177;-92
2023/03/10 02:02:32;;;;;;;21.70;10.47;;;7.00;99.90;;;;;;7840755;28;20209;-91
2023/03/10 02:06:20;;;;;;;19.63;10.53;;;7.00;99.90;;;;;;7840661;28;20217;-91
2023/03/10 02:10:06;;;;;;;16.47;9.33;;;7.00;99.90;;;;;;7840596;28;20182;-91
2023/03/10 02:13:53;;;;;;;18.90;9.20;;;7.10;99.90;;;;;;7840250;28;20742;-91
2023/03/10 02:17:40;;;;;;;13.97;7.57;;;7.20;99.90;;;;;;7840456;28;20221;-91
2023/03/10 02:22:06;;;;;;;17.10;7.67;;;7.20;99.90;;;;;;7840487;28;20185;-91
2023/03/10 02:26:27;;;;;;;13.87;7.87;;;7.20;99.90;;;;;;7840082;28;20206;-91
2023/03/10 02:30:19;;;;;;;11.03;6.97;;;7.20;99.90;;;;;;7829417;28;20193;-91
2023/03/10 02:34:05;;;;;;;16.43;6.90;;;7.20;99.90;;;;;;7839725;28;20218;-91
2023/03/10 02:37:51;;;;;;;14.53;6.57;;;7.20;99.90;;;;;;7839761;28;20173;-92
2023/03/10 02:41:38;;;;;;;12.37;6.23;;;7.20;99.90;;;;;;7839854;28;20185;-92
2023/03/10 02:45:27;;;;;;;11.40;5.93;;;7.20;99.90;;;;;;7839465;28;20621;-92
2023/03/10 02:49:13;;;;;;;14.00;5.80;;;7.20;99.90;;;;;;7839773;28;20186;-91
2023/03/10 02:53:26;;;;;;;13.07;6.17;;;7.20;99.90;;;;;;7839668;28;20687;-92
2023/03/10 02:57:12;;;;;;;12.50;4.90;;;7.30;99.90;;;;;;7838458;28;20193;-91
2023/03/10 03:00:57;;;;;;;11.30;5.10;;;7.20;99.90;;;;;;7856350;28;20174;-93
2023/03/10 03:04:43;;;;;;;14.07;4.90;;;7.20;99.90;;;;;;7865173;28;20259;-91
2023/03/10 03:08:29;;;;;;;10.47;4.87;;;7.30;99.90;;;;;;7838941;28;20716;-92
2023/03/10 03:12:14;;;;;;;8.83;4.63;;;7.20;99.90;;;;;;7839466;28;20225;-92
2023/03/10 03:16:16;;;;;;;8.97;4.37;;;7.30;99.90;;;;;;7839216;28;20592;-92
2023/03/10 03:20:10;;;;;;;11.47;4.97;;;7.30;99.90;;;;;;7839384;28;20636;-92
2023/03/10 03:23:56;;;;;;;10.33;4.70;;;7.30;99.90;;;;;;7840824;28;20566;-92
2023/03/10 03:27:42;;;;;;;8.50;4.13;;;7.30;99.90;;;;;;7838363;28;20201;-91
2023/03/10 03:31:28;;;;;;;11.13;4.93;;;7.20;99.90;;;;;;7838265;28;20256;-92
2023/03/10 03:35:17;;;;;;;11.27;5.30;;;7.20;99.90;;;;;;7838027;28;20194;-92
2023/03/10 03:39:05;;;;;;;12.83;7.10;;;7.20;99.90;;;;;;7838215;28;20184;-92
2023/03/10 03:42:52;;;;;;;14.83;7.20;;;7.20;99.90;;;;;;7837983;28;20229;-91
2023/03/10 03:46:38;;;;;;;10.27;5.97;;;7.10;99.90;;;;;;7837922;28;20185;-92
2023/03/10 03:50:25;;;;;;;16.30;6.20;;;7.10;99.90;;;;;;7837885;28;20178;-91
2023/03/10 03:54:10;;;;;;;11.50;6.87;;;7.10;99.90;;;;;;7838038;28;20685;-92
2023/03/10 03:57:56;;;;;;;11.20;6.50;;;7.00;99.90;;;;;;7837916;28;20189;-91
2023/03/10 04:01:42;;;;;;;12.73;6.70;;;7.10;99.90;;;;;;7837957;28;20189;-91
2023/03/10 04:05:27;;;;;;;13.97;6.40;;;7.00;99.90;;;;;;7837603;28;20288;-91
2023/03/10 04:09:13;;;;;;;9.60;5.80;;;7.00;99.90;;;;;;7837745;28;20186;-91
2023/03/10 04:12:59;;;;;;;13.20;6.20;;;7.00;99.90;;;;;;7837426;28;20705;-91
2023/03/10 04:16:44;;;;;;;13.83;6.03;;;7.00;99.90;;;;;;7837504;28;20693;-92
2023/03/10 04:20:30;;;;;;;12.53;5.97;;;7.10;99.90;;;;;;7840778;28;20185;-91
2023/03/10 04:24:16;;;;;;;10.00;6.00;;;7.10;99.90;;;;;;7843661;28;20208;-92
2023/03/10 04:28:01;;;;;;;8.63;5.43;;;7.00;99.90;;;;;;7843998;28;20446;-91
2023/03/10 04:31:47;;;;;;;14.90;5.90;;;7.00;99.90;;;;;;7833740;28;20276;-91
2023/03/10 04:35:33;;;;;;;9.57;4.27;;;7.00;99.90;;;;;;7824599;28;20206;-92
2023/03/10 04:39:19;;;;;;;9.10;4.40;;;7.10;99.90;;;;;;7833312;28;20181;-91
2023/03/10 04:43:05;;;;;;;5.97;3.13;;;7.10;99.90;;;;;;7842108;28;20206;-89
2023/03/10 04:46:50;;;;;;;5.43;2.90;;;7.20;99.90;;;;;;7834679;28;20312;-91
2023/03/10 04:50:36;;;;;;;5.30;2.97;;;7.30;99.90;;;;;;7841799;28;20280;-93
2023/03/10 04:54:21;;;;;;;4.03;2.60;;;7.30;99.90;;;;;;7835975;28;20682;-91
2023/03/10 04:58:11;;;;;;;8.73;3.83;;;7.30;99.90;;;;;;7858518;28;20393;-90
2023/03/10 05:01:57;;;;;;;7.40;3.80;;;7.30;99.90;;;;;;7839247;28;20193;-92
2023/03/10 05:05:42;;;;;;;6.00;3.97;;;7.40;99.90;;;;;;7834876;28;20209;-92
2023/03/10 05:09:28;;;;;;;6.73;4.20;;;7.30;99.90;;;;;;7827608;28;20277;-90
2023/03/10 05:13:14;;;;;;;8.90;3.97;;;7.30;99.90;;;;;;7830369;28;20210;-84
2023/03/10 05:17:02;;;;;;;7.77;3.50;;;7.30;99.90;;;;;;7840658;28;20209;-92
2023/03/10 05:21:20;;;;;;;4.57;3.10;;;7.30;99.90;;;;;;7814206;28;20188;-91
2023/03/10 05:25:07;;;;;;;7.30;3.90;;;7.30;99.90;;;;;;7835006;28;20218;-92
2023/03/10 05:28:53;;;;;;;7.27;3.13;;;7.30;99.90;;;;;;7811240;28;20206;-92
2023/03/10 05:32:39;;;;;;;7.30;3.23;;;7.40;99.90;;;;;;7813282;28;20213;-91
2023/03/10 05:36:24;;;;;;;4.57;2.87;;;7.30;99.90;;;;;;7830851;28;20178;-92
2023/03/10 05:40:18;;;;;;;7.10;2.93;;;7.30;99.90;;;;;;7841439;28;20177;-92
2023/03/10 05:44:04;;;;;;;5.83;2.47;;;7.20;99.90;;;;;;7835351;28;20206;-92
2023/03/10 05:47:49;;;;;;;5.20;2.60;;;7.20;99.90;;;;;;7824301;28;20312;-92
2023/03/10 05:51:35;;;;;;;5.03;2.40;;;7.20;99.90;;;;;;7836484;28;20213;-91
2023/03/10 05:55:21;;;;;;;6.90;2.43;;;7.20;99.90;;;;;;7810666;28;20199;-92
2023/03/10 05:59:09;;;;;;;5.53;2.30;;;7.20;99.90;;;;;;7822582;28;20255;-92
2023/03/10 06:02:54;;;;;;;6.10;2.30;;;7.20;99.90;;;;;;7835435;28;20206;-92
2023/03/10 06:06:41;;;;;;;7.20;2.27;;;7.40;99.90;;;;;;7833975;28;20182;-92
2023/03/10 06:10:27;;;;;;;3.97;2.07;;;7.20;99.90;;;;;;7818701;28;20472;-91
2023/03/10 06:14:12;;;;;;;5.60;2.10;;;7.20;99.90;;;;;;7842003;28;20260;-90
2023/03/10 06:17:58;;;;;;;6.63;3.13;;;7.30;99.90;;;;;;7840850;28;20181;-91
2023/03/10 06:21:47;;;;;;;18.27;8.50;;;7.30;99.90;;;;;;7837135;28;20182;-90
2023/03/10 06:25:32;;;;;;;8.33;2.57;;;7.40;99.90;;;;;;7828841;28;20203;-90
2023/03/10 06:29:18;;;;;;;5.20;2.13;;;7.30;99.90;;;;;;7802808;28;20236;-90
2023/03/10 06:33:04;;;;;;;5.10;1.53;;;7.40;99.90;;;;;;7805533;28;20599;-90
2023/03/10 06:36:49;;;;;;;5.37;4.03;;;7.40;99.90;;;;;;7797090;28;20230;-90
2023/03/10 06:40:35;;;;;;;11.80;7.30;;;7.40;99.90;;;;;;7790016;28;20218;-90
2023/03/10 06:44:20;;;;;;;13.17;8.37;;;7.50;99.90;;;;;;7795717;28;20262;-90
2023/03/10 06:48:06;;;;;;;4.33;2.60;;;7.50;99.90;;;;;;7814673;28;20711;-90
2023/03/10 06:51:52;;;;;;;3.47;1.77;;;7.60;99.90;;;;;;7806026;28;20642;-90
2023/03/10 06:55:37;;;;;;;4.07;1.70;;;7.60;99.90;;;;;;7828186;28;20234;-89
2023/03/10 06:59:23;;;;;;;3.20;1.83;;;7.60;99.90;;;;;;7824727;28;20190;-90
2023/03/10 07:03:10;;;;;;;3.53;1.17;;;7.60;99.90;;;;;;7804191;28;20617;-90
2023/03/10 07:06:55;;;;;;;3.63;1.30;;;7.60;99.90;;;;;;7802411;28;20707;-90
2023/03/10 07:10:41;;;;;;;1.70;1.20;;;7.60;99.90;;;;;;7789129;28;20622;-90
2023/03/10 07:14:27;;;;;;;3.87;1.60;;;7.60;99.90;;;;;;7801522;28;20630;-90
2023/03/10 07:18:13;;;;;;;9.77;1.90;;;7.60;99.90;;;;;;7806590;28;20186;-89
2023/03/10 07:21:59;;;;;;;5.57;1.67;;;7.60;99.90;;;;;;7798515;28;20277;-90
2023/03/10 07:25:45;;;;;;;2.70;1.70;;;7.60;99.90;;;;;;7792447;28;20203;-90
2023/03/10 07:29:31;;;;;;;3.67;1.93;;;7.60;99.90;;;;;;7779640;28;20278;-90
2023/03/10 07:33:17;;;;;;;2.77;1.93;;;7.60;99.90;;;;;;7805278;28;20353;-89
2023/03/10 07:37:02;;;;;;;5.10;2.13;;;7.50;99.90;;;;;;7802263;28;20194;-90
2023/03/10 07:40:48;;;;;;;2.37;1.60;;;7.60;99.90;;;;;;7813249;28;20183;-90
2023/03/10 07:44:34;;;;;;;4.00;0.90;;;7.70;99.90;;;;;;7797561;28;20273;-89
2023/03/10 07:48:19;;;;;;;2.67;1.00;;;7.90;99.90;;;;;;7789687;28;20187;-86
2023/03/10 07:52:05;;;;;;;3.53;1.43;;;8.20;99.90;;;;;;7805254;28;20269;-89
2023/03/10 07:55:51;;;;;;;2.00;0.90;;;8.50;99.90;;;;;;7804983;28;20207;-89
2023/03/10 07:59:39;;;;;;;1.10;0.97;;;8.70;99.90;;;;;;7800884;28;20271;-88
2023/03/10 08:03:33;;;;;;;1.13;0.70;;;8.90;99.90;;;;;;7806853;28;20198;-90
2023/03/10 08:07:19;;;;;;;2.83;0.80;;;9.10;99.90;;;;;;7798296;28;20174;-88
2023/03/10 08:11:09;;;;;;;1.93;0.70;;;9.10;99.90;;;;;;7806957;28;20200;-87
2023/03/10 08:14:54;;;;;;;1.53;0.80;;;9.20;99.90;;;;;;7808331;28;20221;-86
2023/03/10 08:18:41;;;;;;;2.03;0.80;;;9.20;99.90;;;;;;7797718;28;20676;-87
2023/03/10 08:22:27;;;;;;;2.00;0.70;;;9.30;99.90;;;;;;7789912;28;20376;-87
2023/03/10 08:26:15;;;;;;;2.20;0.93;;;9.20;99.90;;;;;;7811523;28;20186;-86
2023/03/10 08:30:01;;;;;;;2.30;1.40;;;9.30;99.90;;;;;;7782939;28;20171;-86
2023/03/10 08:33:47;;;;;;;4.57;1.90;;;9.40;99.90;;;;;;7799030;28;20685;-88
2023/03/10 08:37:34;;;;;;;4.93;2.60;;;9.40;99.90;;;;;;7798023;28;20586;-87
2023/03/10 08:41:24;;;;;;;2.70;1.30;;;9.40;99.90;;;;;;7793860;28;20242;-87
2023/03/10 08:45:11;;;;;;;2.50;1.00;;;9.50;99.90;;;;;;7794313;28;20191;-85
2023/03/10 08:48:57;;;;;;;2.37;1.60;;;9.50;99.90;;;;;;7801101;28;20182;-86
2023/03/10 08:52:42;;;;;;;4.87;2.90;;;9.60;99.90;;;;;;7830861;28;20214;-87
2023/03/10 08:56:29;;;;;;;3.07;2.00;;;9.70;99.90;;;;;;7779935;28;20266;-86
2023/03/10 09:00:15;;;;;;;1.27;1.10;;;9.70;99.90;;;;;;7802239;28;20186;-87
2023/03/10 09:04:02;;;;;;;1.90;1.20;;;9.80;99.90;;;;;;7803555;28;20257;-88
2023/03/10 09:07:48;;;;;;;2.00;0.73;;;9.90;99.90;;;;;;7793876;28;20184;-86
2023/03/10 09:11:36;;;;;;;0.97;0.50;;;10.10;99.90;;;;;;7778876;28;20772;-88
2023/03/10 09:15:22;;;;;;;1.70;0.80;;;10.30;99.90;;;;;;7800226;28;20218;-87
2023/03/10 09:19:08;;;;;;;1.30;0.40;;;10.40;99.90;;;;;;7808619;28;20236;-87
2023/03/10 09:22:54;;;;;;;1.43;0.47;;;10.50;99.90;;;;;;7808842;28;20213;-86
2023/03/10 09:26:40;;;;;;;0.90;0.80;;;10.60;99.90;;;;;;7810119;28;20556;-85
2023/03/10 09:30:26;;;;;;;1.40;0.80;;;10.50;99.90;;;;;;7803264;28;20214;-87
2023/03/10 09:34:12;;;;;;;0.63;0.63;;;10.60;99.90;;;;;;7808531;28;20272;-85
2023/03/10 09:37:58;;;;;;;1.80;0.63;;;10.60;99.90;;;;;;7804194;28;20190;-86
2023/03/10 09:42:04;;;;;;;1.00;0.60;;;10.70;99.90;;;;;;7796315;28;20195;-88
2023/03/10 09:46:12;;;;;;;1.00;0.60;;;10.80;99.90;;;;;;7807044;28;20268;-88
2023/03/10 09:50:18;;;;;;;1.40;0.60;;;10.80;99.90;;;;;;7801785;28;20190;-87
2023/03/10 09:54:36;;;;;;;1.53;0.80;;;10.80;99.90;;;;;;7794446;28;20281;-88
2023/03/10 09:58:42;;;;;;;1.23;0.57;;;10.70;99.90;;;;;;7800514;28;20185;-89
2023/03/10 10:02:40;;;;;;;3.73;0.70;;;10.80;99.90;;;;;;7789141;28;20872;-86
2023/03/10 10:06:31;;;;;;;1.47;1.00;;;11.00;99.90;;;;;;7801347;28;20166;-87
2023/03/10 10:10:19;;;;;;;1.57;0.80;;;11.10;99.90;;;;;;7792623;28;20187;-86
2023/03/10 10:14:27;;;;;;;3.93;0.87;;;11.30;99.90;;;;;;7787728;28;20218;-88
2023/03/10 10:18:41;;;;;;;2.57;0.77;;;11.30;99.90;;;;;;7799819;28;20191;-88
2023/03/10 10:22:31;;;;;;;1.10;0.50;;;11.40;99.90;;;;;;7781163;28;20278;-87
2023/03/10 10:26:28;;;;;;;1.67;0.33;;;11.40;99.90;;;;;;7777942;28;20279;-90
2023/03/10 10:30:33;;;;;;;2.27;1.10;;;11.50;99.90;;;;;;7821427;28;20775;-88
2023/03/10 10:34:22;;;;;;;2.40;1.17;;;11.60;99.90;;;;;;7808334;28;20218;-87
2023/03/10 10:38:12;;;;;;;3.87;1.90;;;11.70;99.90;;;;;;7807524;28;20273;-87
2023/03/10 10:42:32;;;;;;;3.13;0.60;;;11.60;99.90;;;;;;7776852;28;20222;-89
2023/03/10 10:46:25;;;;;;;1.60;0.80;;;11.60;99.90;;;;;;7791899;28;20198;-86
2023/03/10 10:50:27;;;;;;;0.77;0.60;;;11.50;99.90;;;;;;7842968;28;20255;-88
2023/03/10 10:54:40;;;;;;;3.00;1.67;;;11.60;99.90;;;;;;7806951;28;20222;-86
2023/03/10 10:58:37;;;;;;;29.73;17.93;;;11.60;99.90;;;;;;7805564;28;20186;-87
2023/03/10 11:02:23;;;;;;;2.07;0.93;;;11.50;99.90;;;;;;7801694;28;20277;-88
2023/03/10 11:06:25;;;;;;;1.70;0.60;;;11.60;99.90;;;;;;7779601;28;20919;-89
2023/03/10 11:10:18;;;;;;;1.07;0.43;;;11.60;99.90;;;;;;7800805;28;20178;-88
2023/03/10 11:14:28;;;;;;;1.07;0.57;;;11.60;99.90;;;;;;7782274;28;20235;-89
2023/03/10 11:18:41;;;;;;;1.93;1.30;;;11.60;99.90;;;;;;7788369;28;20190;-87
2023/03/10 11:22:40;;;;;;;1.00;0.43;;;11.60;99.90;;;;;;7801987;28;20546;-89
2023/03/10 11:26:53;;;;;;;1.30;0.50;;;11.50;99.90;;;;;;7782765;28;20187;-86
2023/03/10 11:30:48;;;;;;;1.43;0.50;;;11.50;99.90;;;;;;7776604;28;20611;-86
2023/03/10 11:34:46;;;;;;;2.00;0.50;;;11.60;99.90;;;;;;7807018;28;20225;-87
2023/03/10 11:38:43;;;;;;;1.10;0.40;;;11.60;99.90;;;;;;7790933;28;20207;-86
2023/03/10 11:42:32;;;;;;;1.40;0.50;;;11.60;99.90;;;;;;7796654;28;20194;-88
2023/03/10 11:46:57;;;;;;;2.03;1.10;;;11.70;99.90;;;;;;7793791;28;20191;-88
2023/03/10 11:50:52;;;;;;;3.27;0.50;;;11.80;99.90;;;;;;7796203;28;20672;-89
2023/03/10 11:54:43;;;;;;;2.07;0.63;;;11.80;99.90;;;;;;7797676;28;20213;-88
2023/03/10 11:58:40;;;;;;;3.13;0.87;;;11.90;99.90;;;;;;7808153;28;20720;-88
2023/03/10 12:02:47;;;;;;;3.50;0.80;;;11.90;99.90;;;;;;7805946;28;20206;-87
2023/03/10 12:06:59;;;;;;;4.43;0.90;;;12.00;99.90;;;;;;7774286;28;20290;-88
2023/03/10 12:10:44;;;;;;;2.83;1.17;;;12.00;99.90;;;;;;7785159;28;20194;-89
2023/03/10 12:14:31;;;;;;;1.73;0.70;;;12.00;99.90;;;;;;7806375;28;20214;-90
2023/03/10 12:18:17;;;;;;;4.50;0.97;;;12.00;99.90;;;;;;7792703;28;20194;-90
2023/03/10 12:22:21;;;;;;;4.60;1.00;;;12.00;99.90;;;;;;7807418;28;20175;-89
2023/03/10 12:26:07;;;;;;;2.73;0.70;;;12.00;99.90;;;;;;7806300;28;20182;-90
2023/03/10 12:29:53;;;;;;;3.20;0.93;;;12.10;99.90;;;;;;7793553;28;20226;-87
2023/03/10 12:33:41;;;;;;;3.53;0.73;;;12.10;99.90;;;;;;7780190;28;20222;-87
2023/03/10 12:37:28;;;;;;;4.77;0.87;;;12.10;99.90;;;;;;7782034;28;20194;-87
2023/03/10 12:41:26;;;;;;;3.80;1.17;;;12.10;99.90;;;;;;7801807;28;21944;-89
2023/03/10 12:45:44;;;;;;;2.60;0.90;;;12.10;99.90;;;;;;7859202;28;20270;-89
2023/03/10 12:50:24;;;;;;;5.83;1.10;;;12.00;99.90;;;;;;7799208;28;20601;-88
2023/03/10 12:54:34;;;;;;;1.77;0.70;;;12.00;99.90;;;;;;7759063;28;20237;-85
2023/03/10 12:58:22;;;;;;;1.90;0.70;;;12.00;99.90;;;;;;7809850;28;20541;-86
2023/03/10 13:02:27;;;;;;;2.17;0.80;;;12.00;99.90;;;;;;7783930;28;20277;-86
2023/03/10 13:06:12;;;;;;;3.97;1.20;;;12.10;99.90;;;;;;7799194;28;20179;-87
2023/03/10 13:10:01;;;;;;;5.07;1.20;;;12.10;99.90;;;;;;7790487;28;20190;-87
2023/03/10 13:13:50;;;;;;;2.63;1.10;;;12.20;99.90;;;;;;7801543;28;20233;-87
2023/03/10 13:17:36;;;;;;;3.13;0.87;;;12.30;99.90;;;;;;7795100;28;20645;-86
2023/03/10 13:21:28;;;;;;;4.27;0.83;;;12.40;99.90;;;;;;7808092;28;20700;-89
2023/03/10 13:25:14;;;;;;;3.83;1.70;;;12.40;99.90;;;;;;7798627;28;20260;-88
2023/03/10 13:29:01;;;;;;;3.33;1.13;;;12.40;99.90;;;;;;7798989;28;20195;-87
2023/03/10 13:32:56;;;;;;;6.27;2.07;;;12.40;99.90;;;;;;7789895;28;20734;-78
2023/03/10 13:36:41;;;;;;;2.63;0.87;;;12.40;99.90;;;;;;7803972;28;20680;-88
2023/03/10 13:40:27;;;;;;;3.40;0.80;;;12.50;99.90;;;;;;7800914;28;20190;-90
2023/03/10 13:44:22;;;;;;;2.13;0.87;;;12.50;99.90;;;;;;7782781;28;20203;-89
2023/03/10 13:48:12;;;;;;;4.70;0.90;;;12.50;99.90;;;;;;7803374;28;20174;-89
2023/03/10 13:52:00;;;;;;;4.17;1.10;;;12.50;99.50;;;;;;7809842;28;20230;-85
2023/03/10 13:55:45;;;;;;;5.13;1.40;;;12.60;99.90;;;;;;7800818;28;20568;-86
2023/03/10 13:59:32;;;;;;;2.77;1.43;;;12.60;99.80;;;;;;7783278;28;20187;-85
2023/03/10 14:03:18;;;;;;;2.70;1.70;;;12.60;99.90;;;;;;7791003;28;20213;-84
2023/03/10 14:07:17;;;;;;;8.37;2.10;;;12.60;99.90;;;;;;7812105;28;20214;-84
2023/03/10 14:11:33;;;;;;;8.03;4.00;;;12.60;99.90;;;;;;7793062;28;20198;-83
2023/03/10 14:15:18;;;;;;;53.93;41.00;;;12.60;99.50;;;;;;7803618;28;20234;-80
2023/03/10 14:19:04;;;;;;;164.40;119.93;;;12.50;99.90;;;;;;7813849;28;20182;-87
2023/03/10 14:22:49;;;;;;;11.80;8.57;;;12.50;99.90;;;;;;7806372;28;20692;-85
2023/03/10 14:26:37;;;;;;;5.67;3.60;;;12.50;99.90;;;;;;7803614;28;20270;-84
2023/03/10 14:30:24;;;;;;;3.83;1.10;;;12.50;99.90;;;;;;7797936;28;20263;-91
2023/03/10 14:34:12;;;;;;;4.10;1.00;;;12.40;99.90;;;;;;7813234;28;20209;-92
2023/03/10 14:37:58;;;;;;;2.73;0.73;;;12.20;99.90;;;;;;7847944;28;20187;-91
2023/03/10 14:41:43;;;;;;;5.57;1.20;;;12.00;99.90;;;;;;7808346;28;20193;-91
2023/03/10 14:45:35;;;;;;;7.43;6.77;;;11.60;99.90;;;;;;7808298;28;20201;-91
2023/03/10 14:49:26;;;;;;;4.77;3.77;;;10.00;99.90;;;;;;7810348;28;20167;-91
2023/03/10 14:53:22;;;;;;;2.50;1.10;;;9.20;99.90;;;;;;7809858;28;20742;-92
2023/03/10 14:57:10;;;;;;;1.63;0.70;;;8.90;99.90;;;;;;7810609;28;20681;-92
2023/03/10 15:00:56;;;;;;;0.37;0.37;;;8.90;99.90;;;;;;7815226;28;20175;-93
2023/03/10 15:04:42;;;;;;;2.00;1.10;;;8.90;99.90;;;;;;7809637;28;20202;-93
2023/03/10 15:08:27;;;;;;;1.80;0.63;;;8.90;99.90;;;;;;7809982;28;20182;-92
2023/03/10 15:12:16;;;;;;;1.90;1.00;;;8.90;99.90;;;;;;7807879;28;20229;-92
2023/03/10 15:16:02;;;;;;;1.23;0.90;;;8.90;99.90;;;;;;7807900;28;20731;-92
2023/03/10 15:19:48;;;;;;;0.47;0.47;;;9.10;99.90;;;;;;7807932;28;20595;-93
2023/03/10 15:23:33;;;;;;;0.70;0.60;;;9.10;99.90;;;;;;7808386;28;20694;-93
2023/03/10 15:27:19;;;;;;;2.20;1.23;;;9.20;99.90;;;;;;7809473;28;20206;-92
2023/03/10 15:31:05;;;;;;;1.57;0.90;;;9.20;99.90;;;;;;7808601;28;20190;-92
2023/03/10 15:34:51;;;;;;;2.20;0.60;;;9.30;99.90;;;;;;7810472;28;20226;-92
2023/03/10 15:38:37;;;;;;;1.63;0.50;;;9.30;99.90;;;;;;7809372;28;20185;-92
2023/03/10 15:42:24;;;;;;;0.80;0.40;;;9.50;99.90;;;;;;7808571;28;20739;-93
2023/03/10 15:46:10;;;;;;;0.80;0.50;;;9.50;99.90;;;;;;7810187;28;20268;-92
2023/03/10 15:49:56;;;;;;;1.07;0.97;;;9.60;99.90;;;;;;7807399;28;20190;-92
2023/03/10 15:53:43;;;;;;;0.83;0.40;;;9.80;99.90;;;;;;7807702;28;20284;-92
2023/03/10 15:57:29;;;;;;;2.00;0.57;;;9.80;99.90;;;;;;7808410;28;20179;-92
2023/03/10 16:01:18;;;;;;;3.87;0.70;;;9.80;99.90;;;;;;7812577;28;20444;-92
2023/03/10 16:05:05;;;;;;;2.57;0.60;;;9.80;99.90;;;;;;7810648;28;20198;-92
2023/03/10 16:08:50;;;;;;;0.50;0.50;;;9.80;99.90;;;;;;7809214;28;20171;-92
2023/03/10 16:12:37;;;;;;;0.60;0.40;;;9.80;99.90;;;;;;7812648;28;20305;-92
2023/03/10 16:16:25;;;;;;;2.80;0.73;;;9.80;99.90;;;;;;7815537;28;20194;-92
2023/03/10 16:20:15;;;;;;;2.03;0.80;;;9.70;99.90;;;;;;7819177;28;20182;-93
2023/03/10 16:24:02;;;;;;;2.37;0.80;;;9.70;99.90;;;;;;7817539;28;20293;-91
2023/03/10 16:27:49;;;;;;;1.23;0.73;;;9.70;99.90;;;;;;7810767;28;20163;-93
2023/03/10 16:31:34;;;;;;;1.70;0.80;;;9.70;99.90;;;;;;7817414;28;20520;-93
2023/03/10 16:35:20;;;;;;;2.20;1.17;;;9.70;99.90;;;;;;7787334;28;20199;-93
2023/03/10 16:39:11;;;;;;;2.43;1.20;;;9.70;99.90;;;;;;7787316;28;20172;-91
2023/03/10 16:42:56;;;;;;;3.17;1.80;;;9.60;99.90;;;;;;7787228;28;20203;-92
2023/03/10 16:46:42;;;;;;;4.23;1.13;;;9.60;99.90;;;;;;7790510;28;20418;-91
2023/03/10 16:50:32;;;;;;;2.00;0.73;;;9.50;99.90;;;;;;7811378;28;20281;-84
2023/03/10 16:54:20;;;;;;;0.73;0.60;;;9.60;99.90;;;;;;7814637;28;20215;-86
2023/03/10 16:58:07;;;;;;;1.13;0.67;;;9.80;99.90;;;;;;7814661;28;20194;-84
2023/03/10 17:02:03;;;;;;;4.80;1.00;;;10.00;99.90;;;;;;7829321;28;20187;-90
2023/03/10 17:05:52;;;;;;;2.80;1.63;;;10.20;99.90;;;;;;7823802;28;20212;-91
2023/03/10 17:09:38;;;;;;;3.07;1.30;;;10.20;99.90;;;;;;7826914;28;20178;-91
2023/03/10 17:13:45;;;;;;;1.50;1.00;;;10.30;99.90;;;;;;7847505;28;20883;-91
2023/03/10 17:17:31;;;;;;;2.80;1.13;;;10.30;99.90;;;;;;7847426;28;20205;-91
2023/03/10 17:21:19;;;;;;;2.03;1.53;;;10.30;99.90;;;;;;7825088;28;20187;-92
2023/03/10 17:25:06;;;;;;;1.17;0.80;;;10.20;99.90;;;;;;7818094;28;20286;-92
2023/03/10 17:28:52;;;;;;;1.33;0.80;;;10.10;99.90;;;;;;7814191;28;20175;-91
2023/03/10 17:32:37;;;;;;;1.17;0.53;;;10.00;99.90;;;;;;7821102;28;20217;-91
2023/03/10 17:36:23;;;;;;;1.43;0.60;;;9.90;99.90;;;;;;7816802;28;20201;-93
2023/03/10 17:40:48;;;;;;;2.07;1.00;;;10.00;99.90;;;;;;7811577;28;20175;-92
2023/03/10 17:44:44;;;;;;;3.07;1.50;;;10.00;99.90;;;;;;7811292;28;20202;-91
2023/03/10 17:48:30;;;;;;;1.17;0.97;;;9.90;99.90;;;;;;7811811;28;20209;-91
2023/03/10 17:52:15;;;;;;;1.80;1.50;;;10.00;99.90;;;;;;7811627;28;20224;-91
2023/03/10 17:56:09;;;;;;;0.60;0.57;;;10.00;99.90;;;;;;7810957;28;20182;-91
2023/03/10 17:59:56;;;;;;;2.37;0.90;;;9.90;99.90;;;;;;7811282;28;20628;-90
2023/03/10 18:03:41;;;;;;;0.83;0.83;;;9.90;99.90;;;;;;7811183;28;20217;-90
2023/03/10 18:07:29;;;;;;;3.07;1.00;;;9.80;99.90;;;;;;7811035;28;20208;-91
2023/03/10 18:11:16;;;;;;;1.67;1.00;;;9.70;99.90;;;;;;7811009;28;20375;-91
2023/03/10 18:15:30;;;;;;;3.10;1.20;;;9.70;99.90;;;;;;7811352;28;20222;-91
2023/03/10 18:19:19;;;;;;;3.40;1.70;;;9.70;99.90;;;;;;7827649;28;20198;-91
2023/03/10 18:23:05;;;;;;;2.60;1.20;;;9.60;99.90;;;;;;7840571;28;20195;-93
2023/03/10 18:26:51;;;;;;;1.07;0.97;;;9.50;99.90;;;;;;7822116;28;20690;-91
2023/03/10 18:30:40;;;;;;;1.80;0.70;;;9.50;99.90;;;;;;7805302;28;20186;-84
2023/03/10 18:34:26;;;;;;;1.23;0.70;;;9.40;99.90;;;;;;7780690;28;20243;-91
2023/03/10 18:38:13;;;;;;;0.67;0.60;;;9.40;99.90;;;;;;7778459;28;20175;-83
2023/03/10 18:41:58;;;;;;;0.60;0.60;;;9.40;99.90;;;;;;7778750;28;20186;-92
2023/03/10 18:45:44;;;;;;;2.20;0.80;;;9.30;99.90;;;;;;7779358;28;20207;-90
2023/03/10 18:49:30;;;;;;;1.30;0.77;;;9.30;99.90;;;;;;7779710;28;20278;-85
2023/03/10 18:53:15;;;;;;;1.50;0.70;;;9.40;99.90;;;;;;7805020;28;20206;-84
2023/03/10 18:57:01;;;;;;;1.10;0.70;;;9.40;99.90;;;;;;7795771;28;20186;-87
2023/03/10 19:00:47;;;;;;;2.43;1.47;;;9.40;99.90;;;;;;7803007;28;20187;-91
2023/03/10 19:04:32;;;;;;;1.30;1.20;;;9.40;99.90;;;;;;7808685;28;20210;-91
2023/03/10 19:08:18;;;;;;;1.50;1.40;;;9.50;99.90;;;;;;7808877;28;20179;-91
2023/03/10 19:12:13;;;;;;;2.37;1.00;;;9.60;99.90;;;;;;7809265;28;20691;-91
2023/03/10 19:16:04;;;;;;;1.37;0.90;;;9.70;99.90;;;;;;7794488;28;20192;-92
2023/03/10 19:19:55;;;;;;;1.37;0.90;;;9.70;99.90;;;;;;7778226;28;20175;-92
2023/03/10 19:23:44;;;;;;;1.17;0.90;;;9.80;99.90;;;;;;7777708;28;20203;-91
2023/03/10 19:27:30;;;;;;;3.03;1.10;;;9.90;99.90;;;;;;7779688;28;20171;-92
2023/03/10 19:31:16;;;;;;;1.67;0.40;;;9.70;99.90;;;;;;7787613;28;20186;-92
2023/03/10 19:35:17;;;;;;;3.00;0.90;;;9.70;99.90;;;;;;7777411;28;20451;-92
2023/03/10 19:39:22;;;;;;;8.83;1.13;;;9.60;99.90;;;;;;7789429;28;20210;-91
2023/03/10 19:43:08;;;;;;;0.97;0.70;;;9.60;99.90;;;;;;7807457;28;20195;-91
2023/03/10 19:46:54;;;;;;;0.67;0.50;;;9.40;99.90;;;;;;7807502;28;20189;-91
2023/03/10 19:50:40;;;;;;;0.60;0.50;;;9.20;99.90;;;;;;7807129;28;20175;-92
2023/03/10 19:54:26;;;;;;;0.67;0.50;;;9.00;99.90;;;;;;7807250;28;20690;-90
2023/03/10 19:58:16;;;;;;;0.33;0.30;;;8.90;99.90;;;;;;7807136;28;20182;-90
2023/03/10 20:02:02;;;;;;;0.40;0.40;;;8.80;99.90;;;;;;7807009;28;20223;-91